Latest Weather Observations for Snowtown

IDS60801

Issued at 4:35 pm CST Monday 21 April 2014 (issued every 30 minutes, with the page automatically refreshed every 10 minutes)

About weather observations | Map of weather stations | Latest weather observations for SA | Other Formats
Station Details ID: 021133 Name: RAYVILLE PARK Lat: -33.77 Lon: 138.22 Height: 109.1 m
Data from the previous 72 hours. | See also: Recent months at Snowtown
Date/Time
CST
Temp
°C
App
Temp
°C
Dew
Point
Rel
Hum
%
Delta-T
°C
Wind Press
QNH
hPa
Press
MSL
hPa
Rain
since 9 am
mm
Dir
 
Spd
km/h
Gust
km/h
Spd
kts
Gust
kts
21/04:30pm 27.2 20.3 6.6 27 10.9 N 32 39 17 21 1011.8 - 0.0
21/04:00pm 27.6 20.6 6.9 27 11.0 NNW 33 43 18 23 1012.0 - 0.0
21/03:30pm 27.7 20.7 7.0 27 11.0 NNW 33 44 18 24 1012.3 - 0.0
21/03:00pm 27.7 20.4 7.0 27 11.1 NNW 35 46 19 25 1012.4 1012.3 0.0
21/02:30pm 27.7 20.1 7.5 28 10.9 NNW 37 48 20 26 1012.5 - 0.0
21/02:00pm 27.7 19.3 7.5 28 10.9 NNW 41 54 22 29 1012.5 - 0.0
21/01:30pm 27.9 19.8 7.2 27 11.1 NNW 39 52 21 28 1012.9 - 0.0
21/01:00pm 27.6 20.0 7.5 28 10.8 NNW 37 50 20 27 1013.2 - 0.0
21/12:30pm 27.3 19.4 7.7 29 10.6 NNW 39 57 21 31 1013.7 - 0.0
21/12:19pm 27.6 19.5 6.9 27 11.0 NNW 39 57 21 31 1013.8 - 0.0
21/12:00pm 26.9 17.9 7.4 29 10.4 NNW 44 56 24 30 1014.2 1014.0 0.0
21/11:30am 27.2 18.4 7.1 28 10.7 NNW 43 57 23 31 1014.7 - 0.0
21/11:00am 26.3 17.5 7.4 30 10.1 N 43 61 23 33 1015.0 - 0.0
21/10:30am 26.7 18.6 7.2 29 10.4 NNW 39 63 21 34 1015.1 - 0.0
21/10:04am 24.6 17.8 7.7 34 9.0 N 33 54 18 29 1015.2 - 0.0
21/10:00am 24.8 18.2 7.9 34 9.0 N 32 44 17 24 1015.3 - 0.0
21/09:30am 22.8 16.4 8.5 40 7.6 N 32 41 17 22 1015.6 - 0.0
21/09:00am 20.7 14.3 8.4 45 6.5 N 32 41 17 22 1015.6 1015.4 0.0
21/08:30am 20.2 13.9 8.8 48 6.0 N 32 41 17 22 1015.7 - 0.0
21/08:00am 18.0 12.8 8.8 55 4.8 N 26 33 14 18 1015.4 - 0.0
21/07:30am 16.8 11.1 8.5 58 4.3 N 28 35 15 19 1015.1 - 0.0
21/07:00am 16.7 10.6 8.1 57 4.4 N 30 39 16 21 1015.0 - 0.0
21/06:30am 17.0 10.5 8.2 56 4.5 N 32 43 17 23 1014.8 - 0.0
21/06:00am 16.6 11.3 8.3 58 4.2 N 26 35 14 19 1014.8 1014.6 0.0
21/05:30am 15.2 9.9 8.4 64 3.5 N 26 30 14 16 1014.7 - 0.0
21/05:00am 15.6 11.1 8.4 62 3.7 N 22 28 12 15 1014.7 - 0.0
21/04:30am 15.8 10.5 8.3 61 3.8 N 26 32 14 17 1014.7 - 0.0
21/04:00am 15.9 10.6 8.4 61 3.8 N 26 35 14 19 1014.9 - 0.0
21/03:30am 16.2 10.6 8.7 61 3.9 N 28 35 15 19 1015.1 - 0.0
21/03:00am 16.1 11.0 9.1 63 3.6 N 26 32 14 17 1015.4 1015.2 0.0
21/02:30am 13.6 10.3 9.5 76 2.1 N 17 20 9 11 1015.6 - 0.0
21/02:00am 13.6 10.3 9.5 76 2.1 N 17 19 9 10 1015.8 - 0.0
21/01:30am 14.8 11.5 9.4 70 2.8 N 17 20 9 11 1016.1 - 0.0
21/01:00am 14.8 11.1 9.6 71 2.7 N 19 22 10 12 1016.2 - 0.0
21/12:30am 13.1 10.6 9.7 80 1.7 N 13 17 7 9 1016.3 - 0.0
21/12:00am 13.6 10.1 10.2 80 1.8 N 19 20 10 11 1016.7 1016.5 0.0
 
Date/Time
CST
Temp
°C
App
Temp
°C
Dew
Point
Rel
Hum
%
Delta-T
°C
Wind Press
QNH
hPa
Press
MSL
hPa
Rain
since 9 am
mm
Dir
 
Spd
km/h
Gust
km/h
Spd
kts
Gust
kts
20/11:30pm 12.5 9.9 9.5 82 1.5 N 13 15 7 8 1017.1 - 0.0
20/11:00pm 13.1 9.9 10.1 82 1.6 N 17 20 9 11 1017.3 - 0.0
20/10:30pm 10.9 9.9 9.0 88 0.9 NW 4 7 2 4 1017.7 - 0.0
20/10:00pm 11.5 11.3 8.9 84 1.3 CALM 0 2 0 1 1017.8 - 0.0
20/09:30pm 12.4 11.1 9.2 81 1.6 SW 6 7 3 4 1017.9 - 0.0
20/09:00pm 13.6 11.8 9.5 76 2.1 SW 9 11 5 6 1018.0 1017.9 0.0
20/08:30pm 14.5 12.4 9.9 74 2.4 SW 11 13 6 7 1018.0 - 0.0
20/08:00pm 14.9 13.2 9.9 72 2.6 SW 9 11 5 6 1018.0 - 0.0
20/07:30pm 15.3 13.2 9.9 70 2.8 SW 11 11 6 6 1018.1 - 0.0
20/07:00pm 15.1 13.0 9.9 71 2.7 WSW 11 13 6 7 1017.8 - 0.0
20/06:30pm 14.9 13.4 9.3 69 2.9 E 7 9 4 5 1017.4 - 0.0
20/06:00pm 18.1 16.5 8.9 55 4.8 E 7 7 4 4 1017.1 1017.0 0.0
20/05:30pm 20.8 19.1 8.4 45 6.5 E 7 7 4 4 1016.9 - 0.0
20/05:00pm 22.4 19.8 7.8 39 7.7 E 11 13 6 7 1016.9 - 0.0
20/04:30pm 22.9 21.2 7.4 37 8.1 E 6 13 3 7 1016.9 - 0.0
20/04:00pm 23.5 21.8 7.6 36 8.4 NNE 6 13 3 7 1016.7 - 0.0
20/03:30pm 23.8 21.8 7.0 34 8.8 WSW 7 13 4 7 1016.8 - 0.0
20/03:00pm 23.7 21.3 6.9 34 8.7 SW 9 15 5 8 1016.9 1016.7 0.0
20/02:30pm 24.1 22.3 7.3 34 8.8 SSW 6 19 3 10 1016.9 - 0.0
20/02:00pm 23.7 21.3 6.9 34 8.7 ESE 9 15 5 8 1017.0 - 0.0
20/01:30pm 22.9 20.1 7.0 36 8.3 SSW 11 20 6 11 1017.2 - 0.0
20/01:00pm 22.7 19.3 6.0 34 8.5 SSE 13 19 7 10 1017.4 - 0.0
20/12:30pm 22.0 20.0 7.0 38 7.7 SE 7 17 4 9 1017.8 - 0.0
20/12:00pm 21.8 19.8 7.2 39 7.5 E 7 13 4 7 1018.2 1018.1 0.0
20/11:30am 21.0 18.7 7.3 41 7.1 NE 9 15 5 8 1018.5 - 0.0
20/11:00am 19.9 18.0 7.6 45 6.3 E 7 13 4 7 1018.9 - 0.0
20/10:30am 19.6 17.9 7.4 45 6.2 NNE 6 9 3 5 1019.1 - 0.0
20/10:00am 18.5 16.2 7.3 48 5.7 E 9 13 5 7 1019.1 - 0.0
20/09:30am 18.1 16.1 7.2 49 5.5 NNE 7 11 4 6 1019.4 - 0.0
20/09:00am 16.5 14.9 8.2 58 4.2 NNE 6 9 3 5 1019.4 1019.3 0.0
20/08:30am 14.7 13.1 8.6 67 3.1 NNE 7 9 4 5 1019.4 - 0.0
20/08:00am 13.0 11.5 9.3 78 1.9 NNE 7 9 4 5 1019.3 - 0.0
20/07:30am 10.6 8.9 8.5 87 1.0 N 7 9 4 5 1018.9 - 0.0
20/07:00am 7.7 4.9 6.8 94 0.4 NNW 11 11 6 6 1018.5 - 0.0
20/06:30am 6.8 4.7 5.7 93 0.5 NNW 6 7 3 4 1018.3 - 0.0
20/06:00am 7.0 4.7 5.6 91 0.6 NNW 7 9 4 5 1018.1 1018.0 0.0
20/05:30am 7.5 4.5 6.1 91 0.6 NNW 11 11 6 6 1018.0 - 0.0
20/05:00am 7.4 5.2 6.0 91 0.6 W 7 11 4 6 1017.7 - 0.0
20/04:30am 7.7 6.7 5.8 88 0.9 CALM 0 0 0 0 1017.7 - 0.0
20/04:00am 10.8 10.4 8.2 84 1.3 CALM 0 0 0 0 1017.5 - 0.0
20/03:30am 10.7 10.4 8.8 88 0.9 CALM 0 4 0 2 1017.6 - 0.0
20/03:00am 10.0 8.5 8.4 90 0.8 W 6 7 3 4 1017.4 1017.3 0.0
20/02:30am 9.2 8.6 7.2 87 0.9 CALM 0 0 0 0 1017.3 - 0.0
20/02:00am 9.4 8.9 7.8 90 0.8 CALM 0 0 0 0 1017.6 - 0.0
20/01:30am 10.1 9.5 7.5 84 1.2 CALM 0 0 0 0 1017.8 - 0.0
20/01:00am 11.1 10.8 8.7 85 1.2 CALM 0 0 0 0 1017.9 - 0.0
20/12:30am 10.8 10.0 8.2 84 1.3 S 2 6 1 3 1018.2 - 0.0
20/12:00am 10.6 8.9 7.7 82 1.4 S 6 7 3 4 1018.1 1018.0 0.0
 
Date/Time
CST
Temp
°C
App
Temp
°C
Dew
Point
Rel
Hum
%
Delta-T
°C
Wind Press
QNH
hPa
Press
MSL
hPa
Rain
since 9 am
mm
Dir
 
Spd
km/h
Gust
km/h
Spd
kts
Gust
kts
19/11:30pm 11.2 8.6 7.7 79 1.7 WSW 11 15 6 8 1018.2 - 0.0
19/11:00pm 11.5 8.8 7.4 76 2.0 WSW 11 13 6 7 1018.2 - 0.0
19/10:30pm 10.3 7.2 7.4 82 1.4 WSW 13 15 7 8 1018.6 - 0.0
19/10:00pm 10.8 7.7 7.1 78 1.8 WSW 13 15 7 8 1018.6 - 0.0
19/09:30pm 11.1 8.2 6.6 74 2.1 SW 11 15 6 8 1018.7 - 0.0
19/09:00pm 12.3 9.9 6.8 69 2.6 SSW 9 11 5 6 1018.6 1018.5 0.0
19/08:30pm 13.6 10.7 6.7 63 3.3 S 11 15 6 8 1018.6 - 0.0
19/08:00pm 14.4 12.6 7.9 65 3.2 SW 7 9 4 5 1018.6 - 0.0
19/07:30pm 15.1 12.7 6.9 58 4.0 SSW 9 13 5 7 1018.5 - 0.0
19/07:00pm 15.5 12.2 6.5 55 4.4 S 13 15 7 8 1018.5 - 0.0
19/06:30pm 16.6 13.6 6.1 50 5.1 SSW 11 15 6 8 1018.3 - 0.0
19/06:00pm 17.0 14.1 6.5 50 5.2 SW 11 15 6 8 1018.2 1018.1 0.0
19/05:30pm 17.8 14.1 6.3 47 5.7 WSW 15 20 8 11 1018.2 - 0.0
19/05:00pm 18.7 14.9 5.9 43 6.3 SW 15 20 8 11 1018.1 - 0.0
19/04:30pm 18.4 14.6 7.5 49 5.6 WNW 17 22 9 12 1018.1 - 0.0
19/04:00pm 19.0 14.7 7.1 46 6.0 W 19 24 10 13 1018.2 - 0.0
19/03:30pm 19.9 15.7 5.5 39 7.1 SW 17 24 9 13 1018.2 - 0.0
19/03:00pm 19.6 16.0 4.9 38 7.2 SW 13 26 7 14 1018.4 1018.3 0.0
19/02:30pm 19.7 15.3 4.6 37 7.3 SW 17 24 9 13 1018.3 - 0.0
19/02:00pm 20.8 16.3 4.4 34 8.0 SSW 17 32 9 17 1018.5 - 0.0
19/01:30pm 19.2 14.9 3.4 35 7.5 S 15 26 8 14 1018.8 - 0.0
19/01:00pm 19.7 14.4 5.0 38 7.2 WSW 22 32 12 17 1019.5 - 0.0
19/12:30pm 18.8 15.3 5.6 42 6.5 SSW 13 24 7 13 1020.2 - 0.0
19/12:00pm 18.1 13.8 5.3 43 6.2 SW 17 24 9 13 1020.9 1020.8 0.0
19/11:30am 17.8 15.5 5.7 45 5.9 SSE 7 15 4 8 1021.5 - 0.0
19/11:00am 16.7 13.7 5.9 49 5.3 E 11 15 6 8 1021.9 - 0.0
19/10:30am 15.5 13.0 6.5 55 4.4 ENE 9 17 5 9 1022.2 - 0.0
19/10:00am 15.0 13.3 8.5 65 3.3 ENE 7 13 4 7 1022.7 - 0.0
19/09:30am 13.8 11.6 7.8 67 3.0 ENE 9 13 5 7 1023.3 - 0.0
19/09:00am 12.7 10.7 7.0 68 2.7 E 7 13 4 7 1023.5 1023.3 0.6
19/08:30am 11.4 10.4 7.3 76 2.0 NW 2 7 1 4 1023.5 - 0.6
19/08:00am 9.0 8.4 7.6 91 0.7 CALM 0 0 0 0 1023.3 - 0.6
19/07:30am 6.1 5.1 5.7 97 0.2 CALM 0 0 0 0 1023.2 - 0.6
19/07:00am 3.9 0.7 3.2 95 0.3 NW 9 11 5 6 1022.7 - 0.6
19/06:30am 3.9 0.4 3.3 96 0.2 NW 11 11 6 6 1022.6 - 0.6
19/06:00am 3.7 0.5 3.3 97 0.2 N 9 13 5 7 1022.4 1022.3 0.6
19/05:30am 3.4 1.1 2.8 96 0.2 N 4 6 2 3 1022.5 - 0.6
19/05:00am 3.7 0.9 3.0 95 0.3 N 7 7 4 4 1022.6 - 0.6
19/04:30am 4.6 1.6 4.0 96 0.3 N 9 11 5 6 1022.4 - 0.6
19/04:00am 3.7 2.2 3.1 96 0.2 CALM 0 0 0 0 1022.3 - 0.6
19/03:30am 4.0 1.2 3.4 96 0.2 WSW 7 9 4 5 1022.4 - 0.6
19/03:00am 3.8 1.9 2.9 94 0.4 WSW 2 6 1 3 1022.4 1022.3 0.6
19/02:30am 5.4 4.2 4.4 93 0.4 CALM 0 0 0 0 1022.6 - 0.6
19/02:00am 6.3 3.6 5.6 95 0.3 WSW 9 11 5 6 1022.6 - 0.6
19/01:30am 6.6 3.9 5.6 93 0.4 SW 9 11 5 6 1022.9 - 0.6
19/01:00am 6.7 4.0 5.8 94 0.4 WSW 9 13 5 7 1023.1 - 0.6
19/12:30am 6.5 3.8 5.5 93 0.4 WSW 9 11 5 6 1023.0 - 0.6
19/12:00am 7.6 5.0 6.2 91 0.6 SW 9 11 5 6 1023.1 1022.9 0.6
 
Date/Time
CST
Temp
°C
App
Temp
°C
Dew
Point
Rel
Hum
%
Delta-T
°C
Wind Press
QNH
hPa
Press
MSL
hPa
Rain
since 9 am
mm
Dir
 
Spd
km/h
Gust
km/h
Spd
kts
Gust
kts
18/11:30pm 6.9 4.2 5.5 91 0.6 SW 9 11 5 6 1023.1 - 0.6
18/11:00pm 8.7 6.3 7.0 89 0.8 WSW 9 11 5 6 1023.5 - 0.6
18/10:30pm 9.3 7.0 7.3 87 1.0 SW 9 11 5 6 1023.5 - 0.6
18/10:00pm 9.6 7.0 7.7 88 0.9 WSW 11 11 6 6 1023.6 - 0.6
18/09:30pm 9.6 7.1 8.0 90 0.8 WSW 11 13 6 7 1023.6 - 0.6
18/09:00pm 9.9 7.4 8.0 88 0.9 SW 11 13 6 7 1023.4 1023.2 0.6
18/08:30pm 10.1 7.9 8.0 87 1.0 SW 9 9 5 5 1023.4 - 0.6
18/08:00pm 11.3 8.9 8.5 83 1.4 SSW 11 13 6 7 1023.3 - 0.6
18/07:30pm 11.6 9.1 8.1 79 1.7 SSW 11 13 6 7 1023.3 - 0.6
18/07:00pm 11.8 9.4 6.9 72 2.4 S 9 13 5 7 1023.1 - 0.6
18/06:30pm 13.6 10.3 6.5 62 3.4 S 13 15 7 8 1022.7 - 0.6
18/06:00pm 15.4 11.4 6.7 56 4.3 S 17 20 9 11 1022.3 1022.2 0.6
18/05:30pm 16.5 12.1 7.2 54 4.6 S 20 28 11 15 1022.3 - 0.6
18/05:00pm 17.7 12.7 8.0 53 5.0 S 24 32 13 17 1021.9 - 0.6

Other Formats:

Comma delimited format used in spreadsheet applications
http://www.bom.gov.au/fwo/IDS60801/IDS60801.95670.axf

JavaScript Object Notation format (JSON) in row-major order
http://www.bom.gov.au/fwo/IDS60801/IDS60801.95670.json